sensor_id;sensor_type;location;lat;lon;timestamp;pressure;altitude;pressure_sealevel;temperature;humidity
14269;BME280;7218;51.480;7.006;2022-09-09T00:00:47;100046.72;;;18.92;97.98
14269;BME280;7218;51.480;7.006;2022-09-09T00:03:17;100046.22;;;18.85;98.78
14269;BME280;7218;51.480;7.006;2022-09-09T00:05:52;100043.00;;;18.80;97.68
14269;BME280;7218;51.480;7.006;2022-09-09T00:08:26;100037.63;;;18.66;96.80
14269;BME280;7218;51.480;7.006;2022-09-09T00:10:58;100042.34;;;18.61;98.02
14269;BME280;7218;51.480;7.006;2022-09-09T00:13:32;100039.94;;;18.72;97.56
14269;BME280;7218;51.480;7.006;2022-09-09T00:16:04;100039.94;;;18.72;98.21
14269;BME280;7218;51.480;7.006;2022-09-09T00:18:49;100042.13;;;18.80;97.72
14269;BME280;7218;51.480;7.006;2022-09-09T00:21:22;100040.53;;;18.62;98.63
14269;BME280;7218;51.480;7.006;2022-09-09T00:23:54;100044.97;;;18.61;98.81
14269;BME280;7218;51.480;7.006;2022-09-09T00:26:27;100045.28;;;18.86;97.68
14269;BME280;7218;51.480;7.006;2022-09-09T00:29:02;100047.16;;;18.84;97.69
14269;BME280;7218;51.480;7.006;2022-09-09T00:31:31;100047.06;;;18.86;97.84
14269;BME280;7218;51.480;7.006;2022-09-09T00:34:03;100042.75;;;18.69;98.31
14269;BME280;7218;51.480;7.006;2022-09-09T00:36:35;100047.59;;;18.92;97.40
14269;BME280;7218;51.480;7.006;2022-09-09T00:39:03;100050.13;;;18.78;97.08
14269;BME280;7218;51.480;7.006;2022-09-09T00:41:38;100043.50;;;18.71;97.54
14269;BME280;7218;51.480;7.006;2022-09-09T00:44:21;100038.03;;;18.74;97.93
14269;BME280;7218;51.480;7.006;2022-09-09T00:46:56;100040.03;;;18.55;98.52
14269;BME280;7218;51.480;7.006;2022-09-09T00:49:36;100037.13;;;18.75;97.42
14269;BME280;7218;51.480;7.006;2022-09-09T00:52:21;100040.69;;;18.74;97.68
14269;BME280;7218;51.480;7.006;2022-09-09T00:54:55;100037.91;;;18.62;99.04
14269;BME280;7218;51.480;7.006;2022-09-09T00:57:27;100042.66;;;18.71;97.90
14269;BME280;7218;51.480;7.006;2022-09-09T01:00:15;100049.13;;;18.81;98.20
14269;BME280;7218;51.480;7.006;2022-09-09T01:02:52;100055.09;;;18.84;97.13
14269;BME280;7218;51.480;7.006;2022-09-09T01:05:22;100043.84;;;18.81;97.54
14269;BME280;7218;51.480;7.006;2022-09-09T01:07:51;100048.00;;;19.01;97.67
14269;BME280;7218;51.480;7.006;2022-09-09T01:10:27;100046.41;;;18.82;97.01
14269;BME280;7218;51.480;7.006;2022-09-09T01:13:01;100047.94;;;18.86;97.69
14269;BME280;7218;51.480;7.006;2022-09-09T01:15:30;100040.34;;;18.80;97.53
14269;BME280;7218;51.480;7.006;2022-09-09T01:18:00;100035.75;;;18.68;97.08
14269;BME280;7218;51.480;7.006;2022-09-09T01:20:31;100035.56;;;18.87;97.03
14269;BME280;7218;51.480;7.006;2022-09-09T01:23:26;100034.25;;;18.94;97.79
14269;BME280;7218;51.480;7.006;2022-09-09T01:26:12;100036.00;;;18.79;97.58
14269;BME280;7218;51.480;7.006;2022-09-09T01:28:40;100033.94;;;18.84;97.88
14269;BME280;7218;51.480;7.006;2022-09-09T01:31:11;100034.28;;;18.78;97.28
14269;BME280;7218;51.480;7.006;2022-09-09T01:33:39;100033.41;;;18.93;96.91
14269;BME280;7218;51.480;7.006;2022-09-09T01:36:08;100033.56;;;19.06;96.85
14269;BME280;7218;51.480;7.006;2022-09-09T01:38:36;100032.63;;;19.07;96.75
14269;BME280;7218;51.480;7.006;2022-09-09T01:41:03;100025.38;;;19.11;96.74
14269;BME280;7218;51.480;7.006;2022-09-09T01:43:32;100030.00;;;19.07;97.52
14269;BME280;7218;51.480;7.006;2022-09-09T01:46:00;100022.34;;;19.03;97.80
14269;BME280;7218;51.480;7.006;2022-09-09T01:48:28;100018.72;;;19.04;96.78
14269;BME280;7218;51.480;7.006;2022-09-09T01:50:55;100018.28;;;19.11;96.63
14269;BME280;7218;51.480;7.006;2022-09-09T01:53:22;100014.63;;;18.98;96.87
14269;BME280;7218;51.480;7.006;2022-09-09T01:55:58;100014.78;;;18.81;97.37
14269;BME280;7218;51.480;7.006;2022-09-09T01:58:33;100012.41;;;18.61;98.24
14269;BME280;7218;51.480;7.006;2022-09-09T02:01:10;100016.03;;;18.89;96.72
14269;BME280;7218;51.480;7.006;2022-09-09T02:03:41;100020.16;;;18.79;97.37
14269;BME280;7218;51.480;7.006;2022-09-09T02:06:17;100019.66;;;18.73;97.98
14269;BME280;7218;51.480;7.006;2022-09-09T02:08:52;100026.53;;;18.75;96.96
14269;BME280;7218;51.480;7.006;2022-09-09T02:11:22;100022.22;;;18.43;98.12
14269;BME280;7218;51.480;7.006;2022-09-09T02:13:52;100023.25;;;18.56;98.13
14269;BME280;7218;51.480;7.006;2022-09-09T02:16:23;100027.75;;;18.70;96.96
14269;BME280;7218;51.480;7.006;2022-09-09T02:18:56;100026.16;;;18.67;97.32
14269;BME280;7218;51.480;7.006;2022-09-09T02:21:25;100023.06;;;18.59;96.90
14269;BME280;7218;51.480;7.006;2022-09-09T02:23:55;100028.50;;;18.87;96.10
14269;BME280;7218;51.480;7.006;2022-09-09T02:26:23;100029.69;;;18.82;96.29
14269;BME280;7218;51.480;7.006;2022-09-09T02:28:54;100026.47;;;18.77;96.54
14269;BME280;7218;51.480;7.006;2022-09-09T02:31:23;100030.56;;;18.82;96.09
14269;BME280;7218;51.480;7.006;2022-09-09T02:33:53;100021.75;;;18.98;95.13
14269;BME280;7218;51.480;7.006;2022-09-09T02:36:22;100022.53;;;18.68;96.66
14269;BME280;7218;51.480;7.006;2022-09-09T02:38:50;100018.09;;;18.84;96.12
14269;BME280;7218;51.480;7.006;2022-09-09T02:41:20;100028.06;;;18.79;96.13
14269;BME280;7218;51.480;7.006;2022-09-09T02:43:51;100019.25;;;18.95;95.28
14269;BME280;7218;51.480;7.006;2022-09-09T02:46:29;100027.84;;;18.98;95.24
14269;BME280;7218;51.480;7.006;2022-09-09T02:49:01;100027.81;;;19.14;95.12
14269;BME280;7218;51.480;7.006;2022-09-09T02:51:35;100025.72;;;19.05;95.83
14269;BME280;7218;51.480;7.006;2022-09-09T02:54:10;100021.47;;;19.02;96.18
14269;BME280;7218;51.480;7.006;2022-09-09T02:56:48;100017.25;;;19.14;95.85
14269;BME280;7218;51.480;7.006;2022-09-09T02:59:17;100020.63;;;19.02;95.98
14269;BME280;7218;51.480;7.006;2022-09-09T03:01:44;100017.16;;;18.85;96.93
14269;BME280;7218;51.480;7.006;2022-09-09T03:04:10;100024.25;;;18.69;97.88
14269;BME280;7218;51.480;7.006;2022-09-09T03:06:37;100017.94;;;18.87;97.86
14269;BME280;7218;51.480;7.006;2022-09-09T03:09:03;100016.91;;;18.74;98.08
14269;BME280;7218;51.480;7.006;2022-09-09T03:11:30;100016.88;;;18.90;97.59
14269;BME280;7218;51.480;7.006;2022-09-09T03:13:56;100014.41;;;19.03;96.75
14269;BME280;7218;51.480;7.006;2022-09-09T03:16:24;100017.97;;;19.02;97.59
14269;BME280;7218;51.480;7.006;2022-09-09T03:18:51;100011.75;;;19.03;97.07
14269;BME280;7218;51.480;7.006;2022-09-09T03:21:17;100013.44;;;19.04;97.25
14269;BME280;7218;51.480;7.006;2022-09-09T03:23:44;100008.84;;;19.07;96.62
14269;BME280;7218;51.480;7.006;2022-09-09T03:26:11;100005.53;;;18.88;97.37
14269;BME280;7218;51.480;7.006;2022-09-09T03:28:40;100005.75;;;18.69;98.10
14269;BME280;7218;51.480;7.006;2022-09-09T03:31:07;100005.22;;;18.78;98.10
14269;BME280;7218;51.480;7.006;2022-09-09T03:33:37;100009.56;;;18.79;97.95
14269;BME280;7218;51.480;7.006;2022-09-09T03:36:04;100015.56;;;18.67;98.54
14269;BME280;7218;51.480;7.006;2022-09-09T03:38:32;100002.25;;;18.84;97.77
14269;BME280;7218;51.480;7.006;2022-09-09T03:40:59;100006.97;;;18.93;97.19
14269;BME280;7218;51.480;7.006;2022-09-09T03:43:27;100006.25;;;18.91;97.19
14269;BME280;7218;51.480;7.006;2022-09-09T03:45:55;100006.91;;;18.95;96.44
14269;BME280;7218;51.480;7.006;2022-09-09T03:48:22;100005.06;;;18.81;97.29
14269;BME280;7218;51.480;7.006;2022-09-09T03:50:52;100012.28;;;18.93;96.69
14269;BME280;7218;51.480;7.006;2022-09-09T03:53:21;100005.47;;;18.89;96.71
14269;BME280;7218;51.480;7.006;2022-09-09T03:55:50;100004.41;;;18.62;98.07
14269;BME280;7218;51.480;7.006;2022-09-09T03:58:18;100010.94;;;18.86;96.26
14269;BME280;7218;51.480;7.006;2022-09-09T04:00:53;100008.03;;;18.91;96.54
14269;BME280;7218;51.480;7.006;2022-09-09T04:03:19;100005.13;;;18.96;96.17
14269;BME280;7218;51.480;7.006;2022-09-09T04:05:48;100005.69;;;19.01;95.72
14269;BME280;7218;51.480;7.006;2022-09-09T04:08:16;100005.69;;;19.01;95.84
14269;BME280;7218;51.480;7.006;2022-09-09T04:10:44;100007.13;;;19.06;95.57
14269;BME280;7218;51.480;7.006;2022-09-09T04:13:11;100008.56;;;19.12;95.21
14269;BME280;7218;51.480;7.006;2022-09-09T04:15:41;100015.00;;;19.08;95.88
14269;BME280;7218;51.480;7.006;2022-09-09T04:18:08;100001.22;;;18.87;95.79
14269;BME280;7218;51.480;7.006;2022-09-09T04:20:35;100004.16;;;18.67;97.16
14269;BME280;7218;51.480;7.006;2022-09-09T04:23:01;100003.38;;;18.65;97.04
14269;BME280;7218;51.480;7.006;2022-09-09T04:25:30;100002.78;;;18.75;96.92
14269;BME280;7218;51.480;7.006;2022-09-09T04:27:57;99997.88;;;18.83;96.29
14269;BME280;7218;51.480;7.006;2022-09-09T04:30:24;100012.22;;;18.64;97.19
14269;BME280;7218;51.480;7.006;2022-09-09T04:32:52;100008.06;;;18.60;97.33
14269;BME280;7218;51.480;7.006;2022-09-09T04:35:19;100008.84;;;18.77;96.63
14269;BME280;7218;51.480;7.006;2022-09-09T04:37:46;100009.03;;;18.88;95.97
14269;BME280;7218;51.480;7.006;2022-09-09T04:40:13;100010.78;;;18.58;97.18
14269;BME280;7218;51.480;7.006;2022-09-09T04:42:41;100010.97;;;18.71;97.24
14269;BME280;7218;51.480;7.006;2022-09-09T04:45:09;100011.56;;;18.60;97.85
14269;BME280;7218;51.480;7.006;2022-09-09T04:47:36;100011.97;;;18.68;97.15
14269;BME280;7218;51.480;7.006;2022-09-09T04:50:03;100016.25;;;18.55;98.05
14269;BME280;7218;51.480;7.006;2022-09-09T04:52:30;100014.50;;;18.85;96.45
14269;BME280;7218;51.480;7.006;2022-09-09T04:54:57;100012.16;;;18.65;97.20
14269;BME280;7218;51.480;7.006;2022-09-09T04:57:23;100007.88;;;18.78;96.94
14269;BME280;7218;51.480;7.006;2022-09-09T04:59:51;100007.03;;;18.78;97.05
14269;BME280;7218;51.480;7.006;2022-09-09T05:02:17;100013.31;;;18.91;96.55
14269;BME280;7218;51.480;7.006;2022-09-09T05:04:44;100014.16;;;18.91;96.57
14269;BME280;7218;51.480;7.006;2022-09-09T05:07:10;100007.47;;;18.70;97.23
14269;BME280;7218;51.480;7.006;2022-09-09T05:09:37;100010.44;;;18.64;97.33
14269;BME280;7218;51.480;7.006;2022-09-09T05:12:03;100007.19;;;18.75;96.89
14269;BME280;7218;51.480;7.006;2022-09-09T05:14:30;100008.84;;;18.77;97.05
14269;BME280;7218;51.480;7.006;2022-09-09T05:16:58;100011.09;;;18.83;96.63
14269;BME280;7218;51.480;7.006;2022-09-09T05:19:24;100011.91;;;19.00;95.66
14269;BME280;7218;51.480;7.006;2022-09-09T05:21:51;99998.09;;;19.10;95.26
14269;BME280;7218;51.480;7.006;2022-09-09T05:24:17;100004.88;;;19.14;95.16
14269;BME280;7218;51.480;7.006;2022-09-09T05:26:43;100006.41;;;19.18;94.83
14269;BME280;7218;51.480;7.006;2022-09-09T05:29:10;100009.75;;;19.22;94.76
14269;BME280;7218;51.480;7.006;2022-09-09T05:31:36;100003.59;;;18.91;95.94
14269;BME280;7218;51.480;7.006;2022-09-09T05:34:05;100010.75;;;18.89;96.64
14269;BME280;7218;51.480;7.006;2022-09-09T05:36:31;100006.19;;;18.77;96.65
14269;BME280;7218;51.480;7.006;2022-09-09T05:38:58;100002.06;;;18.87;96.16
14269;BME280;7218;51.480;7.006;2022-09-09T05:41:24;100000.44;;;19.15;95.19
14269;BME280;7218;51.480;7.006;2022-09-09T05:43:51;99995.34;;;19.12;95.00
14269;BME280;7218;51.480;7.006;2022-09-09T05:46:18;99998.69;;;19.29;94.35
14269;BME280;7218;51.480;7.006;2022-09-09T05:48:46;99995.25;;;18.83;96.84
14269;BME280;7218;51.480;7.006;2022-09-09T05:51:16;99994.22;;;18.86;96.46
14269;BME280;7218;51.480;7.006;2022-09-09T05:53:43;99994.19;;;19.02;95.33
14269;BME280;7218;51.480;7.006;2022-09-09T05:56:11;100001.41;;;18.68;97.22
14269;BME280;7218;51.480;7.006;2022-09-09T05:58:39;100007.72;;;18.81;96.23
14269;BME280;7218;51.480;7.006;2022-09-09T06:01:11;99997.84;;;19.29;94.41
14269;BME280;7218;51.480;7.006;2022-09-09T06:03:39;99999.09;;;19.38;94.25
14269;BME280;7218;51.480;7.006;2022-09-09T06:06:08;100001.56;;;19.41;93.66
14269;BME280;7218;51.480;7.006;2022-09-09T06:08:37;100006.25;;;19.21;94.66
14269;BME280;7218;51.480;7.006;2022-09-09T06:11:05;100012.97;;;19.41;93.73
14269;BME280;7218;51.480;7.006;2022-09-09T06:13:32;100011.34;;;19.24;94.42
14269;BME280;7218;51.480;7.006;2022-09-09T06:16:00;100017.44;;;19.11;94.66
14269;BME280;7218;51.480;7.006;2022-09-09T06:18:27;100010.41;;;19.25;94.25
14269;BME280;7218;51.480;7.006;2022-09-09T06:20:56;100006.53;;;19.31;94.19
14269;BME280;7218;51.480;7.006;2022-09-09T06:23:23;100015.09;;;19.20;94.71
14269;BME280;7218;51.480;7.006;2022-09-09T06:25:51;100015.09;;;19.50;93.23
14269;BME280;7218;51.480;7.006;2022-09-09T06:28:17;100009.09;;;19.32;94.20
14269;BME280;7218;51.480;7.006;2022-09-09T06:30:44;100019.00;;;19.29;93.78
14269;BME280;7218;51.480;7.006;2022-09-09T06:33:12;100013.31;;;19.51;92.86
14269;BME280;7218;51.480;7.006;2022-09-09T06:35:38;100014.94;;;19.67;92.17
14269;BME280;7218;51.480;7.006;2022-09-09T06:38:05;100014.56;;;19.73;92.18
14269;BME280;7218;51.480;7.006;2022-09-09T06:40:33;100011.03;;;19.59;93.07
14269;BME280;7218;51.480;7.006;2022-09-09T06:43:01;100017.97;;;19.75;92.40
14269;BME280;7218;51.480;7.006;2022-09-09T06:45:28;100017.66;;;19.52;93.54
14269;BME280;7218;51.480;7.006;2022-09-09T06:47:55;100022.19;;;19.78;91.90
14269;BME280;7218;51.480;7.006;2022-09-09T06:50:21;100016.09;;;19.92;90.65
14269;BME280;7218;51.480;7.006;2022-09-09T06:52:48;100020.03;;;19.56;92.13
14269;BME280;7218;51.480;7.006;2022-09-09T06:55:14;100017.97;;;19.90;91.75
14269;BME280;7218;51.480;7.006;2022-09-09T06:57:43;100026.56;;;19.79;91.30
14269;BME280;7218;51.480;7.006;2022-09-09T07:00:12;100025.91;;;19.61;91.63
14269;BME280;7218;51.480;7.006;2022-09-09T07:02:39;100030.34;;;19.61;91.66
14269;BME280;7218;51.480;7.006;2022-09-09T07:05:07;100018.06;;;20.02;90.29
14269;BME280;7218;51.480;7.006;2022-09-09T07:07:33;100023.25;;;20.04;89.58
14269;BME280;7218;51.480;7.006;2022-09-09T07:10:00;100026.09;;;20.01;89.54
14269;BME280;7218;51.480;7.006;2022-09-09T07:12:26;100032.72;;;20.22;88.89
14269;BME280;7218;51.480;7.006;2022-09-09T07:14:53;100029.78;;;19.98;89.70
14269;BME280;7218;51.480;7.006;2022-09-09T07:17:21;100030.06;;;19.65;91.45
14269;BME280;7218;51.480;7.006;2022-09-09T07:19:48;100036.28;;;19.93;90.06
14269;BME280;7218;51.480;7.006;2022-09-09T07:22:14;100032.22;;;19.73;91.45
14269;BME280;7218;51.480;7.006;2022-09-09T07:24:41;100031.97;;;20.06;89.37
14269;BME280;7218;51.480;7.006;2022-09-09T07:27:10;100037.25;;;19.92;90.29
14269;BME280;7218;51.480;7.006;2022-09-09T07:29:36;100033.75;;;19.91;90.01
14269;BME280;7218;51.480;7.006;2022-09-09T07:32:03;100043.69;;;20.02;90.77
14269;BME280;7218;51.480;7.006;2022-09-09T07:34:31;100043.19;;;20.09;89.31
14269;BME280;7218;51.480;7.006;2022-09-09T07:36:57;100045.53;;;20.42;87.91
14269;BME280;7218;51.480;7.006;2022-09-09T07:39:24;100038.19;;;20.33;87.29
14269;BME280;7218;51.480;7.006;2022-09-09T07:41:50;100050.84;;;20.28;86.70
14269;BME280;7218;51.480;7.006;2022-09-09T07:44:18;100044.56;;;20.57;86.35
14269;BME280;7218;51.480;7.006;2022-09-09T07:46:46;100046.22;;;20.73;86.11
14269;BME280;7218;51.480;7.006;2022-09-09T07:49:14;100035.25;;;20.38;86.10
14269;BME280;7218;51.480;7.006;2022-09-09T07:51:43;100046.22;;;20.73;84.43
14269;BME280;7218;51.480;7.006;2022-09-09T07:54:12;100050.72;;;20.58;84.70
14269;BME280;7218;51.480;7.006;2022-09-09T07:56:40;100055.38;;;20.54;84.68
14269;BME280;7218;51.480;7.006;2022-09-09T07:59:08;100058.63;;;20.31;84.52
14269;BME280;7218;51.480;7.006;2022-09-09T08:01:38;100053.44;;;20.71;83.38
14269;BME280;7218;51.480;7.006;2022-09-09T08:04:06;100057.72;;;20.59;82.80
14269;BME280;7218;51.480;7.006;2022-09-09T08:06:37;100059.38;;;20.74;81.68
14269;BME280;7218;51.480;7.006;2022-09-09T08:09:07;100060.31;;;20.04;83.12
14269;BME280;7218;51.480;7.006;2022-09-09T08:11:34;100060.69;;;20.26;82.29
14269;BME280;7218;51.480;7.006;2022-09-09T08:14:01;100057.84;;;20.43;82.34
14269;BME280;7218;51.480;7.006;2022-09-09T08:16:30;100052.53;;;20.29;82.66
14269;BME280;7218;51.480;7.006;2022-09-09T08:18:57;100059.66;;;20.14;81.87
14269;BME280;7218;51.480;7.006;2022-09-09T08:21:25;100062.56;;;20.24;82.81
14269;BME280;7218;51.480;7.006;2022-09-09T08:23:54;100063.09;;;20.72;81.20
14269;BME280;7218;51.480;7.006;2022-09-09T08:26:25;100070.16;;;20.44;81.78
14269;BME280;7218;51.480;7.006;2022-09-09T08:28:54;100067.44;;;20.73;80.66
14269;BME280;7218;51.480;7.006;2022-09-09T08:31:24;100063.81;;;21.15;79.98
14269;BME280;7218;51.480;7.006;2022-09-09T08:33:53;100058.56;;;21.53;79.58
14269;BME280;7218;51.480;7.006;2022-09-09T08:36:21;100060.00;;;21.71;77.00
14269;BME280;7218;51.480;7.006;2022-09-09T08:38:49;100066.34;;;21.68;77.66
14269;BME280;7218;51.480;7.006;2022-09-09T08:41:32;100064.88;;;21.64;76.05
14269;BME280;7218;51.480;7.006;2022-09-09T08:44:05;100054.47;;;21.86;74.46
14269;BME280;7218;51.480;7.006;2022-09-09T08:46:40;100069.09;;;21.92;73.93
14269;BME280;7218;51.480;7.006;2022-09-09T08:49:20;100075.66;;;21.48;72.14
14269;BME280;7218;51.480;7.006;2022-09-09T08:51:53;100078.00;;;21.40;71.22
14269;BME280;7218;51.480;7.006;2022-09-09T08:54:21;100066.56;;;21.65;70.43
14269;BME280;7218;51.480;7.006;2022-09-09T08:56:50;100056.72;;;22.05;68.93
14269;BME280;7218;51.480;7.006;2022-09-09T08:59:17;100067.38;;;22.42;68.26
14269;BME280;7218;51.480;7.006;2022-09-09T09:01:59;100061.06;;;22.31;66.24
14269;BME280;7218;51.480;7.006;2022-09-09T09:04:42;100060.31;;;21.79;66.59
14269;BME280;7218;51.480;7.006;2022-09-09T09:07:21;100061.44;;;21.62;68.03
14269;BME280;7218;51.480;7.006;2022-09-09T09:09:57;100059.97;;;22.34;65.96
14269;BME280;7218;51.480;7.006;2022-09-09T09:12:30;100073.16;;;22.36;64.41
14269;BME280;7218;51.480;7.006;2022-09-09T09:15:01;100071.44;;;22.35;64.50
14269;BME280;7218;51.480;7.006;2022-09-09T09:17:31;100063.34;;;22.49;62.18
14269;BME280;7218;51.480;7.006;2022-09-09T09:19:58;100071.38;;;22.72;60.88
14269;BME280;7218;51.480;7.006;2022-09-09T09:22:30;100074.34;;;22.68;60.13
14269;BME280;7218;51.480;7.006;2022-09-09T09:25:05;100076.81;;;22.58;60.73
14269;BME280;7218;51.480;7.006;2022-09-09T09:27:40;100076.66;;;21.85;63.06
14269;BME280;7218;51.480;7.006;2022-09-09T09:30:14;100077.53;;;21.86;63.09
14269;BME280;7218;51.480;7.006;2022-09-09T09:32:49;100084.31;;;21.90;62.71
14269;BME280;7218;51.480;7.006;2022-09-09T09:35:17;100067.31;;;22.30;61.75
14269;BME280;7218;51.480;7.006;2022-09-09T09:37:45;100065.91;;;22.38;61.34
14269;BME280;7218;51.480;7.006;2022-09-09T09:40:13;100072.44;;;22.08;62.97
14269;BME280;7218;51.480;7.006;2022-09-09T09:42:50;100079.56;;;22.08;63.77
14269;BME280;7218;51.480;7.006;2022-09-09T09:45:26;100063.09;;;22.52;62.27
14269;BME280;7218;51.480;7.006;2022-09-09T09:48:01;100073.97;;;23.33;60.06
14269;BME280;7218;51.480;7.006;2022-09-09T09:50:28;100073.72;;;22.52;61.02
14269;BME280;7218;51.480;7.006;2022-09-09T09:52:56;100074.59;;;22.52;62.41
14269;BME280;7218;51.480;7.006;2022-09-09T09:55:24;100080.94;;;22.13;63.90
14269;BME280;7218;51.480;7.006;2022-09-09T09:57:54;100074.19;;;22.46;63.14
14269;BME280;7218;51.480;7.006;2022-09-09T10:00:26;100072.22;;;22.24;62.67
14269;BME280;7218;51.480;7.006;2022-09-09T10:02:53;100079.56;;;22.08;63.15
14269;BME280;7218;51.480;7.006;2022-09-09T10:05:21;100091.19;;;21.92;64.23
14269;BME280;7218;51.480;7.006;2022-09-09T10:08:00;100088.06;;;22.25;63.68
14269;BME280;7218;51.480;7.006;2022-09-09T10:10:35;100083.66;;;22.37;62.97
14269;BME280;7218;51.480;7.006;2022-09-09T10:13:11;100079.66;;;22.19;63.04
14269;BME280;7218;51.480;7.006;2022-09-09T10:15:45;100082.50;;;21.90;64.76
14269;BME280;7218;51.480;7.006;2022-09-09T10:18:30;100084.53;;;22.25;64.14
14269;BME280;7218;51.480;7.006;2022-09-09T10:21:08;100086.13;;;22.27;63.22
14269;BME280;7218;51.480;7.006;2022-09-09T10:23:48;100073.44;;;22.56;61.13
14269;BME280;7218;51.480;7.006;2022-09-09T10:26:31;100074.88;;;23.44;58.99
14269;BME280;7218;51.480;7.006;2022-09-09T10:29:13;100071.59;;;23.41;54.61
14269;BME280;7218;51.480;7.006;2022-09-09T10:31:53;100078.66;;;24.10;53.34
14269;BME280;7218;51.480;7.006;2022-09-09T10:34:32;100066.66;;;24.60;50.38
14269;BME280;7218;51.480;7.006;2022-09-09T10:37:11;100058.78;;;24.36;53.98
14269;BME280;7218;51.480;7.006;2022-09-09T10:39:42;100069.22;;;23.49;50.98
14269;BME280;7218;51.480;7.006;2022-09-09T10:42:09;100063.31;;;23.33;53.11
14269;BME280;7218;51.480;7.006;2022-09-09T10:44:51;100054.63;;;23.07;52.75
14269;BME280;7218;51.480;7.006;2022-09-09T10:47:31;100062.91;;;23.15;52.87
14269;BME280;7218;51.480;7.006;2022-09-09T10:50:15;100069.72;;;23.06;53.15
14269;BME280;7218;51.480;7.006;2022-09-09T10:52:50;100065.84;;;22.63;53.98
14269;BME280;7218;51.480;7.006;2022-09-09T10:55:24;100053.50;;;22.62;54.62
14269;BME280;7218;51.480;7.006;2022-09-09T10:57:53;100065.53;;;22.18;56.94
14269;BME280;7218;51.480;7.006;2022-09-09T11:00:25;100054.88;;;22.31;56.31
14269;BME280;7218;51.480;7.006;2022-09-09T11:02:56;100055.97;;;22.65;55.33
14269;BME280;7218;51.480;7.006;2022-09-09T11:05:28;100066.59;;;22.65;54.87
14269;BME280;7218;51.480;7.006;2022-09-09T11:07:58;100056.09;;;22.87;54.78
14269;BME280;7218;51.480;7.006;2022-09-09T11:10:36;100054.00;;;23.03;55.29
14269;BME280;7218;51.480;7.006;2022-09-09T11:13:10;100050.94;;;22.73;56.84
14269;BME280;7218;51.480;7.006;2022-09-09T11:15:44;100060.00;;;22.58;57.56
14269;BME280;7218;51.480;7.006;2022-09-09T11:18:17;100047.88;;;22.17;58.23
14269;BME280;7218;51.480;7.006;2022-09-09T11:20:45;100065.72;;;22.41;58.72
14269;BME280;7218;51.480;7.006;2022-09-09T11:23:17;100056.78;;;22.78;56.68
14269;BME280;7218;51.480;7.006;2022-09-09T11:25:49;100052.78;;;22.96;56.75
14269;BME280;7218;51.480;7.006;2022-09-09T11:28:28;100054.88;;;23.39;53.94
14269;BME280;7218;51.480;7.006;2022-09-09T11:31:13;100049.19;;;24.12;51.55
14269;BME280;7218;51.480;7.006;2022-09-09T11:34:02;100046.41;;;23.69;52.89
14269;BME280;7218;51.480;7.006;2022-09-09T11:36:42;100042.91;;;23.79;52.08
14269;BME280;7218;51.480;7.006;2022-09-09T11:42:22;100032.63;;;23.40;54.11
14269;BME280;7218;51.480;7.006;2022-09-09T11:44:50;100049.91;;;22.99;56.20
14269;BME280;7218;51.480;7.006;2022-09-09T11:47:24;100043.00;;;22.60;56.49
14269;BME280;7218;51.480;7.006;2022-09-09T11:49:55;100044.06;;;22.21;59.95
14269;BME280;7218;51.480;7.006;2022-09-09T11:52:37;100036.03;;;22.83;58.52
14269;BME280;7218;51.480;7.006;2022-09-09T11:55:09;100025.50;;;22.82;58.33
14269;BME280;7218;51.480;7.006;2022-09-09T11:57:36;100052.00;;;22.34;59.68
14269;BME280;7218;51.480;7.006;2022-09-09T12:00:04;100043.34;;;22.56;59.76
14269;BME280;7218;51.480;7.006;2022-09-09T12:02:33;100050.91;;;22.37;62.21
14269;BME280;7218;51.480;7.006;2022-09-09T12:05:05;100045.53;;;22.25;64.09
14269;BME280;7218;51.480;7.006;2022-09-09T12:07:37;100055.63;;;22.69;62.94
14269;BME280;7218;51.480;7.006;2022-09-09T12:10:20;100048.59;;;22.81;61.77
14269;BME280;7218;51.480;7.006;2022-09-09T12:12:48;100053.38;;;23.24;60.38
14269;BME280;7218;51.480;7.006;2022-09-09T12:15:24;100050.25;;;23.30;60.75
14269;BME280;7218;51.480;7.006;2022-09-09T12:17:56;100045.44;;;23.92;56.44
14269;BME280;7218;51.480;7.006;2022-09-09T12:20:27;100037.16;;;25.16;54.10
14269;BME280;7218;51.480;7.006;2022-09-09T12:23:08;100053.06;;;24.63;53.98
14269;BME280;7218;51.480;7.006;2022-09-09T12:25:49;100044.06;;;23.53;58.64
14269;BME280;7218;51.480;7.006;2022-09-09T12:28:22;100054.00;;;23.51;60.59
14269;BME280;7218;51.480;7.006;2022-09-09T12:30:59;100053.16;;;23.50;60.18
14269;BME280;7218;51.480;7.006;2022-09-09T12:33:35;100055.13;;;23.36;60.57
14269;BME280;7218;51.480;7.006;2022-09-09T12:36:03;100045.94;;;22.81;63.03
14269;BME280;7218;51.480;7.006;2022-09-09T12:38:35;100060.88;;;22.58;63.61
14269;BME280;7218;51.480;7.006;2022-09-09T12:41:02;100061.44;;;22.38;63.22
14269;BME280;7218;51.480;7.006;2022-09-09T12:43:29;100050.28;;;22.46;63.99
14269;BME280;7218;51.480;7.006;2022-09-09T12:45:58;100040.03;;;24.38;57.67
14269;BME280;7218;51.480;7.006;2022-09-09T12:48:31;100048.97;;;25.02;52.58
14269;BME280;7218;51.480;7.006;2022-09-09T12:51:00;100046.94;;;24.40;54.30
14269;BME280;7218;51.480;7.006;2022-09-09T12:53:30;100036.63;;;23.80;57.81
14269;BME280;7218;51.480;7.006;2022-09-09T12:55:59;100043.63;;;23.00;60.75
14269;BME280;7218;51.480;7.006;2022-09-09T12:58:28;100041.03;;;22.51;63.75
14269;BME280;7218;51.480;7.006;2022-09-09T13:00:58;100041.16;;;22.73;63.11
14269;BME280;7218;51.480;7.006;2022-09-09T13:03:26;100035.34;;;22.92;62.56
14269;BME280;7218;51.480;7.006;2022-09-09T13:05:57;100035.81;;;22.50;64.70
14269;BME280;7218;51.480;7.006;2022-09-09T13:08:26;100046.72;;;22.58;65.12
14269;BME280;7218;51.480;7.006;2022-09-09T13:10:55;100056.56;;;22.45;71.59
14269;BME280;7218;51.480;7.006;2022-09-09T13:13:26;100056.47;;;21.83;75.91
14269;BME280;7218;51.480;7.006;2022-09-09T13:15:56;100051.06;;;21.46;77.54
14269;BME280;7218;51.480;7.006;2022-09-09T13:18:27;100071.22;;;21.49;80.49
14269;BME280;7218;51.480;7.006;2022-09-09T13:20:54;100059.75;;;20.41;85.42